createdAt,value
2023-04-12T00:00:50.733Z,4.97
2023-04-12T00:03:20.380Z,5.53
2023-04-12T00:05:48.155Z,5.70
2023-04-12T00:08:16.798Z,5.20
2023-04-12T00:10:43.421Z,5.43
2023-04-12T00:13:10.177Z,5.23
2023-04-12T00:15:36.917Z,5.00
2023-04-12T00:18:03.827Z,5.40
2023-04-12T00:20:30.409Z,6.43
2023-04-12T00:22:57.601Z,5.13
2023-04-12T00:25:24.398Z,5.60
2023-04-12T00:27:51.447Z,5.53
2023-04-12T00:30:18.076Z,5.33
2023-04-12T00:32:45.110Z,5.73
2023-04-12T00:35:11.535Z,5.70
2023-04-12T00:37:39.194Z,5.20
2023-04-12T00:40:08.215Z,5.20
2023-04-12T00:42:36.329Z,5.10
2023-04-12T00:45:02.956Z,4.33
2023-04-12T00:47:30.291Z,4.10
2023-04-12T00:49:56.966Z,4.00
2023-04-12T00:52:23.538Z,4.30
2023-04-12T00:54:51.775Z,3.73
2023-04-12T00:57:18.567Z,4.43
2023-04-12T00:59:45.227Z,3.87
2023-04-12T01:02:11.885Z,3.47
2023-04-12T01:04:39.562Z,3.53
2023-04-12T01:07:29.971Z,3.67
2023-04-12T01:10:09.856Z,3.50
2023-04-12T01:13:04.843Z,3.10
2023-04-12T01:15:35.014Z,2.73
2023-04-12T01:18:08.041Z,2.90
2023-04-12T01:20:54.561Z,3.47
2023-04-12T01:23:40.851Z,3.30
2023-04-12T01:26:34.805Z,2.90
2023-04-12T01:29:07.700Z,3.10
2023-04-12T01:31:36.937Z,3.10
2023-04-12T01:34:06.090Z,3.20
2023-04-12T01:36:34.836Z,2.90
2023-04-12T01:39:04.533Z,2.80
2023-04-12T01:41:32.994Z,3.17
2023-04-12T01:43:59.575Z,3.10
2023-04-12T01:46:26.416Z,2.97
2023-04-12T01:48:54.552Z,2.87
2023-04-12T01:51:51.172Z,3.53
2023-04-12T01:54:33.022Z,3.20
2023-04-12T01:57:04.290Z,3.37
2023-04-12T01:59:36.004Z,2.93
2023-04-12T02:02:03.780Z,3.60
2023-04-12T02:04:32.659Z,3.60
2023-04-12T02:06:59.814Z,3.20
2023-04-12T02:09:26.395Z,3.47
2023-04-12T02:11:52.983Z,3.30
2023-04-12T02:14:19.444Z,3.70
2023-04-12T02:16:46.516Z,3.60
2023-04-12T02:19:13.284Z,3.20
2023-04-12T02:21:43.601Z,3.53
2023-04-12T02:24:11.301Z,3.43
2023-04-12T02:26:38.477Z,3.00
2023-04-12T02:29:09.144Z,3.50
2023-04-12T02:31:38.784Z,2.63
2023-04-12T02:34:08.176Z,3.20
2023-04-12T02:36:37.613Z,2.73
2023-04-12T02:39:04.543Z,3.07
2023-04-12T02:41:34.100Z,2.77
2023-04-12T02:44:01.087Z,3.17
2023-04-12T02:46:27.655Z,3.07
2023-04-12T02:48:57.871Z,3.40
2023-04-12T02:51:32.383Z,2.90
2023-04-12T02:53:59.948Z,3.30
2023-04-12T02:56:30.222Z,2.90
2023-04-12T02:59:06.731Z,3.57
2023-04-12T03:01:56.124Z,2.93
2023-04-12T03:04:30.461Z,2.90
2023-04-12T03:06:59.549Z,3.63
2023-04-12T03:09:35.025Z,2.90
2023-04-12T03:12:02.856Z,3.13
2023-04-12T03:14:33.275Z,2.30
2023-04-12T03:16:59.971Z,2.83
2023-04-12T03:19:26.428Z,2.90
2023-04-12T03:21:55.058Z,2.27
2023-04-12T03:24:21.795Z,2.90
2023-04-12T03:26:50.069Z,2.83
2023-04-12T03:29:22.269Z,2.70
2023-04-12T03:31:50.849Z,2.83
2023-04-12T03:34:17.856Z,3.30
2023-04-12T03:36:48.798Z,2.73
2023-04-12T03:39:35.357Z,2.90
2023-04-12T03:42:01.892Z,2.60
2023-04-12T03:44:29.114Z,2.80
2023-04-12T03:46:57.766Z,2.73
2023-04-12T03:49:26.424Z,2.50
2023-04-12T03:51:53.091Z,2.90
2023-04-12T03:54:19.696Z,2.57
2023-04-12T03:57:01.969Z,2.80
2023-04-12T03:59:36.536Z,2.80
2023-04-12T04:02:03.483Z,3.07
2023-04-12T04:04:32.895Z,3.80
2023-04-12T04:07:05.326Z,2.77
2023-04-12T04:09:39.827Z,2.83
2023-04-12T04:12:06.567Z,3.10
2023-04-12T04:14:36.896Z,2.87
2023-04-12T04:17:05.710Z,3.00
2023-04-12T04:19:34.233Z,2.97
2023-04-12T04:22:02.018Z,2.60
2023-04-12T04:24:29.271Z,3.90
2023-04-12T04:26:59.720Z,4.00
2023-04-12T04:29:29.080Z,2.83
2023-04-12T04:31:57.876Z,3.30
2023-04-12T04:34:25.634Z,2.97
2023-04-12T04:36:58.701Z,3.20
2023-04-12T04:39:27.338Z,2.97
2023-04-12T04:42:06.510Z,3.20
2023-04-12T04:44:38.886Z,3.40
2023-04-12T04:47:08.606Z,3.40
2023-04-12T04:49:39.506Z,3.53
2023-04-12T04:52:24.247Z,2.97
2023-04-12T04:54:57.591Z,3.80
2023-04-12T04:57:26.715Z,2.90
2023-04-12T04:59:56.006Z,3.93
2023-04-12T05:02:22.756Z,3.37
2023-04-12T05:04:49.374Z,3.87
2023-04-12T05:07:18.816Z,3.33
2023-04-12T05:09:47.823Z,3.67
2023-04-12T05:12:14.783Z,3.33
2023-04-12T05:14:49.846Z,3.13
2023-04-12T05:17:18.538Z,3.47
2023-04-12T05:19:45.412Z,2.73
2023-04-12T05:22:13.723Z,3.23
2023-04-12T05:24:40.813Z,3.73
2023-04-12T05:27:07.232Z,3.40
2023-04-12T05:29:34.638Z,3.63
2023-04-12T05:32:01.185Z,3.40
2023-04-12T05:34:27.633Z,3.30
2023-04-12T05:36:56.796Z,3.07
2023-04-12T05:39:23.518Z,3.57
2023-04-12T05:41:51.852Z,2.70
2023-04-12T05:44:18.385Z,3.30
2023-04-12T05:46:44.928Z,2.90
2023-04-12T05:49:12.388Z,3.20
2023-04-12T05:51:41.271Z,2.87
2023-04-12T05:54:12.630Z,3.20
2023-04-12T05:56:39.107Z,3.00
2023-04-12T05:59:06.630Z,3.00
2023-04-12T06:01:33.349Z,2.90
2023-04-12T06:04:06.087Z,2.90
2023-04-12T06:06:32.847Z,3.00
2023-04-12T06:09:01.044Z,3.40
2023-04-12T06:11:28.921Z,3.87
2023-04-12T06:13:55.712Z,3.10
2023-04-12T06:16:23.016Z,3.30
2023-04-12T06:18:49.576Z,3.80
2023-04-12T06:21:16.081Z,3.40
2023-04-12T06:23:42.709Z,3.00
2023-04-12T06:26:09.372Z,3.20
2023-04-12T06:28:35.848Z,2.90
2023-04-12T06:31:02.278Z,3.00
2023-04-12T06:33:33.563Z,2.83
2023-04-12T06:36:00.929Z,2.87
2023-04-12T06:38:27.451Z,2.93
2023-04-12T06:40:53.865Z,3.30
2023-04-12T06:43:22.348Z,3.03
2023-04-12T06:45:51.875Z,3.73
2023-04-12T06:48:18.709Z,2.77
2023-04-12T06:50:45.763Z,3.50
2023-04-12T06:53:13.631Z,4.20
2023-04-12T06:55:40.652Z,3.00
2023-04-12T06:58:07.306Z,2.90
2023-04-12T07:00:34.565Z,3.17
2023-04-12T07:03:01.666Z,3.30
2023-04-12T07:05:28.320Z,2.80
2023-04-12T07:07:54.859Z,2.47
2023-04-12T07:10:21.301Z,2.93
2023-04-12T07:12:47.929Z,3.00
2023-04-12T07:15:14.327Z,2.70
2023-04-12T07:17:40.816Z,3.40
2023-04-12T07:20:07.918Z,3.03
2023-04-12T07:22:34.495Z,2.70
2023-04-12T07:25:00.934Z,2.50
2023-04-12T07:27:27.413Z,3.00
2023-04-12T07:29:54.473Z,2.80
2023-04-12T07:32:21.502Z,2.63
2023-04-12T07:34:48.016Z,3.10
2023-04-12T07:37:14.568Z,2.83
2023-04-12T07:39:41.294Z,2.80
2023-04-12T07:42:07.797Z,2.50
2023-04-12T07:44:36.409Z,2.70
2023-04-12T07:47:04.724Z,2.90
2023-04-12T07:49:31.189Z,2.60
2023-04-12T07:51:57.755Z,2.57
2023-04-12T07:54:27.648Z,2.40
2023-04-12T07:57:03.808Z,2.50
2023-04-12T07:59:31.391Z,2.63
2023-04-12T08:01:58.047Z,2.43
2023-04-12T08:04:24.629Z,2.00
2023-04-12T08:06:51.936Z,2.60
2023-04-12T08:09:18.398Z,2.57
2023-04-12T08:11:45.384Z,2.10
2023-04-12T08:14:11.800Z,2.07
2023-04-12T08:16:38.283Z,2.83
2023-04-12T08:19:04.669Z,2.23
2023-04-12T08:21:31.109Z,2.50
2023-04-12T08:23:57.859Z,3.13
2023-04-12T08:26:26.486Z,2.30
2023-04-12T08:28:52.906Z,2.73
2023-04-12T08:31:19.424Z,2.20
2023-04-12T08:33:46.001Z,1.90
2023-04-12T08:36:12.738Z,2.23
2023-04-12T08:38:45.385Z,2.03
2023-04-12T08:41:13.220Z,2.10
2023-04-12T08:43:43.666Z,2.37
2023-04-12T08:46:10.752Z,2.20
2023-04-12T08:48:38.307Z,2.20
2023-04-12T08:51:05.829Z,2.00
2023-04-12T08:53:33.534Z,2.10
2023-04-12T08:56:00.285Z,2.33
2023-04-12T08:58:27.335Z,1.93
2023-04-12T09:00:54.638Z,2.20
2023-04-12T09:03:21.350Z,1.80
2023-04-12T09:05:48.121Z,2.40
2023-04-12T09:08:14.593Z,2.50
2023-04-12T09:10:42.773Z,2.03
2023-04-12T09:13:09.595Z,2.57
2023-04-12T09:15:36.262Z,2.13
2023-04-12T09:18:11.295Z,2.20
2023-04-12T09:20:38.942Z,1.97
2023-04-12T09:23:26.551Z,2.03
2023-04-12T09:25:54.003Z,1.90
2023-04-12T09:28:29.769Z,2.17
2023-04-12T09:31:00.227Z,1.87
2023-04-12T09:33:38.033Z,2.03
2023-04-12T09:36:06.609Z,1.90
2023-04-12T09:38:33.632Z,1.80
2023-04-12T09:41:20.790Z,2.20
2023-04-12T09:43:48.909Z,1.97
2023-04-12T09:46:16.454Z,1.80
2023-04-12T09:48:51.751Z,1.80
2023-04-12T09:51:33.431Z,1.87
2023-04-12T09:54:05.566Z,2.20
2023-04-12T09:56:34.273Z,1.87
2023-04-12T09:59:03.196Z,2.10
2023-04-12T10:01:38.953Z,2.17
2023-04-12T10:04:08.103Z,1.70
2023-04-12T10:06:36.912Z,1.90
2023-04-12T10:09:04.369Z,2.73
2023-04-12T10:11:32.227Z,2.13
2023-04-12T10:13:59.678Z,2.47
2023-04-12T10:16:27.495Z,2.57
2023-04-12T10:18:55.296Z,2.17
2023-04-12T10:21:22.387Z,2.17
2023-04-12T10:23:49.032Z,2.50
2023-04-12T10:26:16.914Z,2.37
2023-04-12T10:28:47.751Z,2.50
2023-04-12T10:31:28.097Z,2.40
2023-04-12T10:33:55.327Z,2.53
2023-04-12T10:36:51.355Z,2.70
2023-04-12T10:39:17.971Z,2.20
2023-04-12T10:42:19.399Z,2.50
2023-04-12T10:44:47.243Z,2.17
2023-04-12T10:47:14.165Z,2.37
2023-04-12T10:49:40.766Z,2.87
2023-04-12T10:52:10.696Z,2.50
2023-04-12T10:54:37.204Z,2.27
2023-04-12T10:57:06.685Z,1.93
2023-04-12T10:59:50.898Z,2.20
2023-04-12T11:02:17.954Z,2.53
2023-04-12T11:05:04.700Z,2.60
2023-04-12T11:07:54.455Z,2.50
2023-04-12T11:10:39.250Z,2.83
2023-04-12T11:13:09.097Z,2.87
2023-04-12T11:15:39.782Z,2.40
2023-04-12T11:18:11.724Z,2.40
2023-04-12T11:20:40.712Z,2.37
2023-04-12T11:23:10.595Z,2.50
2023-04-12T11:25:37.840Z,2.90
2023-04-12T11:28:11.015Z,2.80
2023-04-12T11:30:54.332Z,3.37
2023-04-12T11:33:33.444Z,3.20
2023-04-12T11:36:03.356Z,3.00
2023-04-12T11:38:30.009Z,2.67
2023-04-12T11:40:56.618Z,2.80
2023-04-12T11:43:23.328Z,2.60
2023-04-12T11:45:56.138Z,3.07
2023-04-12T11:48:22.684Z,2.30
2023-04-12T11:50:57.087Z,2.17
2023-04-12T11:53:30.639Z,2.50
2023-04-12T11:55:58.458Z,2.50
2023-04-12T11:58:28.903Z,2.70
2023-04-12T12:00:57.167Z,2.30
2023-04-12T12:03:24.696Z,2.70
2023-04-12T12:05:52.121Z,2.67
2023-04-12T12:08:19.806Z,2.93
2023-04-12T12:13:18.886Z,2.63
2023-04-12T12:15:45.996Z,2.60
2023-04-12T12:18:12.611Z,2.53
2023-04-12T12:20:41.503Z,2.60
2023-04-12T12:23:08.121Z,2.83
2023-04-12T12:25:34.739Z,2.50
2023-04-12T12:28:03.490Z,2.10
2023-04-12T12:30:30.655Z,2.27
2023-04-12T12:32:57.120Z,2.40
2023-04-12T12:35:26.130Z,1.93
2023-04-12T12:37:55.810Z,2.10
2023-04-12T12:40:31.503Z,2.20
2023-04-12T12:42:58.178Z,2.30
2023-04-12T12:45:27.632Z,2.47
2023-04-12T12:47:59.591Z,2.90
2023-04-12T12:50:28.111Z,2.40
2023-04-12T12:52:55.762Z,3.00
2023-04-12T12:55:24.537Z,2.30
2023-04-12T12:58:07.308Z,2.40
2023-04-12T13:00:35.497Z,2.73
2023-04-12T13:03:02.581Z,2.80
2023-04-12T13:05:29.730Z,2.90
2023-04-12T13:07:56.201Z,2.80
2023-04-12T13:10:23.793Z,3.10
2023-04-12T13:12:50.323Z,3.00
2023-04-12T13:15:22.864Z,3.00
2023-04-12T13:17:54.614Z,3.30
2023-04-12T13:20:22.537Z,3.50
2023-04-12T13:22:50.138Z,3.73
2023-04-12T13:25:16.829Z,3.30
2023-04-12T13:27:43.223Z,3.20
2023-04-12T13:30:10.044Z,4.30
2023-04-12T13:32:36.495Z,3.20
2023-04-12T13:35:03.979Z,3.33
2023-04-12T13:37:31.359Z,3.10
2023-04-12T13:39:57.926Z,3.37
2023-04-12T13:42:24.388Z,3.40
2023-04-12T13:44:51.124Z,3.50
2023-04-12T13:47:20.592Z,3.90
2023-04-12T13:49:47.204Z,3.47
2023-04-12T13:52:13.849Z,3.07
2023-04-12T13:54:41.182Z,3.63
2023-04-12T13:57:07.877Z,3.40
2023-04-12T13:59:34.553Z,3.27
2023-04-12T14:02:01.760Z,3.50
2023-04-12T14:04:29.852Z,2.80
2023-04-12T14:06:57.065Z,3.30
2023-04-12T14:09:27.605Z,3.17
2023-04-12T14:11:56.069Z,2.90
2023-04-12T14:14:23.195Z,3.30
2023-04-12T14:16:57.131Z,2.70
2023-04-12T14:19:24.231Z,3.03
2023-04-12T14:21:51.666Z,3.00
2023-04-12T14:24:19.313Z,2.90
2023-04-12T14:26:46.138Z,2.70
2023-04-12T14:29:13.469Z,2.80
2023-04-12T14:31:40.417Z,3.03
2023-04-12T14:34:08.725Z,2.83
2023-04-12T14:36:35.260Z,3.20
2023-04-12T14:39:04.043Z,2.60
2023-04-12T14:41:31.651Z,2.70
2023-04-12T14:44:01.668Z,3.20
2023-04-12T14:46:28.704Z,3.20
2023-04-12T14:48:57.397Z,3.10
2023-04-12T14:51:24.108Z,2.90
2023-04-12T14:53:51.012Z,3.00
2023-04-12T14:56:24.333Z,2.57
2023-04-12T14:58:55.850Z,2.97
2023-04-12T15:01:23.761Z,2.87
2023-04-12T15:03:51.911Z,2.77
2023-04-12T15:06:19.226Z,3.60
2023-04-12T15:08:46.632Z,3.00
2023-04-12T15:11:13.437Z,2.67
2023-04-12T15:13:41.510Z,2.53
2023-04-12T15:16:09.141Z,2.40
2023-04-12T15:18:41.563Z,2.43
2023-04-12T15:21:10.333Z,2.77
2023-04-12T15:23:38.370Z,2.37
2023-04-12T15:26:07.502Z,2.40
2023-04-12T15:28:34.069Z,2.27
2023-04-12T15:31:01.149Z,2.53
2023-04-12T15:33:28.472Z,2.47
2023-04-12T15:35:57.760Z,2.53
2023-04-12T15:38:24.842Z,1.90
2023-04-12T15:40:56.156Z,2.50
2023-04-12T15:43:23.773Z,2.60
2023-04-12T15:45:54.734Z,2.30
2023-04-12T15:48:22.949Z,2.10
2023-04-12T15:50:54.111Z,2.43
2023-04-12T15:53:23.136Z,2.10
2023-04-12T15:55:54.558Z,2.20
2023-04-12T15:58:25.154Z,2.40
2023-04-12T16:00:53.916Z,2.43
2023-04-12T16:03:23.278Z,2.10
2023-04-12T16:05:53.572Z,2.30
2023-04-12T16:08:22.239Z,2.60
2023-04-12T16:10:49.866Z,2.70
2023-04-12T16:13:16.350Z,2.40
2023-04-12T16:15:42.875Z,2.37
2023-04-12T16:18:09.681Z,2.90
2023-04-12T16:20:37.384Z,2.90
2023-04-12T16:23:05.046Z,2.57
2023-04-12T16:25:32.137Z,2.70
2023-04-12T16:28:02.308Z,3.00
2023-04-12T16:30:30.940Z,2.83
2023-04-12T16:32:58.097Z,2.77
2023-04-12T16:35:24.604Z,2.60
2023-04-12T16:37:51.317Z,2.93
2023-04-12T16:40:17.950Z,2.80
2023-04-12T16:42:44.921Z,2.60
2023-04-12T16:45:13.969Z,2.63
2023-04-12T16:47:40.828Z,2.90
2023-04-12T16:50:09.104Z,2.80
2023-04-12T16:52:36.634Z,3.00
2023-04-12T16:55:04.215Z,3.20
2023-04-12T16:57:31.115Z,2.80
2023-04-12T16:59:57.665Z,2.97
2023-04-12T17:02:24.977Z,2.80
2023-04-12T17:04:51.911Z,2.90
2023-04-12T17:07:18.902Z,2.80
2023-04-12T17:09:45.586Z,2.90
2023-04-12T17:12:12.539Z,3.10
2023-04-12T17:14:39.281Z,3.63
2023-04-12T17:17:06.630Z,3.37
2023-04-12T17:19:33.579Z,2.97
2023-04-12T17:22:00.162Z,3.40
2023-04-12T17:24:26.857Z,2.87
2023-04-12T17:26:53.650Z,3.57
2023-04-12T17:29:20.455Z,3.30
2023-04-12T17:31:49.753Z,3.57
2023-04-12T17:34:19.031Z,3.40
2023-04-12T17:36:45.460Z,3.53
2023-04-12T17:39:12.491Z,3.87
2023-04-12T17:41:39.303Z,3.53
2023-04-12T17:44:06.656Z,3.60
2023-04-12T17:46:34.671Z,4.20
2023-04-12T17:49:04.116Z,4.13
2023-04-12T17:51:31.458Z,4.40
2023-04-12T17:53:58.451Z,4.63
2023-04-12T17:56:25.881Z,4.00
2023-04-12T17:58:53.334Z,4.23
2023-04-12T18:01:19.803Z,4.30
2023-04-12T18:03:47.619Z,4.63
2023-04-12T18:06:14.270Z,4.20
2023-04-12T18:08:40.744Z,3.90
2023-04-12T18:11:07.907Z,4.07
2023-04-12T18:13:34.529Z,3.90
2023-04-12T18:16:01.500Z,4.20
2023-04-12T18:18:28.212Z,4.30
2023-04-12T18:20:54.693Z,4.37
2023-04-12T18:23:21.470Z,4.67
2023-04-12T18:25:48.014Z,4.50
2023-04-12T18:28:14.928Z,4.50
2023-04-12T18:30:41.418Z,4.77
2023-04-12T18:35:34.351Z,4.93
2023-04-12T18:38:01.036Z,4.90
2023-04-12T18:40:27.483Z,5.87
2023-04-12T18:42:54.166Z,5.73
2023-04-12T18:45:20.678Z,5.17
2023-04-12T18:47:47.311Z,5.40
2023-04-12T18:50:14.427Z,5.57
2023-04-12T18:52:40.988Z,4.73
2023-04-12T18:55:08.070Z,5.07
2023-04-12T18:57:34.793Z,4.37
2023-04-12T19:00:01.438Z,4.33
2023-04-12T19:02:28.257Z,5.10
2023-04-12T19:04:55.019Z,5.20
2023-04-12T19:07:22.354Z,5.40
2023-04-12T19:09:48.915Z,5.27
2023-04-12T19:12:15.472Z,5.30
2023-04-12T19:14:41.885Z,4.57
2023-04-12T19:17:09.584Z,3.43
2023-04-12T19:19:36.096Z,2.87
2023-04-12T19:22:02.776Z,2.20
2023-04-12T19:24:29.270Z,2.60
2023-04-12T19:26:56.393Z,2.60
2023-04-12T19:29:24.154Z,2.47
2023-04-12T19:31:53.782Z,2.57
2023-04-12T19:34:20.707Z,2.43
2023-04-12T19:36:47.562Z,2.30
2023-04-12T19:39:15.475Z,2.30
2023-04-12T19:41:42.066Z,2.40
2023-04-12T19:44:08.621Z,2.00
2023-04-12T19:46:38.484Z,2.60
2023-04-12T19:49:05.206Z,2.63
2023-04-12T19:51:31.737Z,2.53
2023-04-12T19:53:59.258Z,2.20
2023-04-12T19:56:26.145Z,1.90
2023-04-12T19:58:54.552Z,2.33
2023-04-12T20:01:21.139Z,2.00
2023-04-12T20:03:47.898Z,1.50
2023-04-12T20:06:14.816Z,2.50
2023-04-12T20:08:41.384Z,2.20
2023-04-12T20:11:08.027Z,2.23
2023-04-12T20:13:36.146Z,1.87
2023-04-12T20:16:04.314Z,2.47
2023-04-12T20:18:30.737Z,2.10
2023-04-12T20:20:57.803Z,2.10
2023-04-12T20:23:28.018Z,1.90
2023-04-12T20:25:55.539Z,2.40
2023-04-12T20:28:22.134Z,1.83
2023-04-12T20:30:48.852Z,2.40
2023-04-12T20:33:15.752Z,2.20
2023-04-12T20:35:44.838Z,1.93
2023-04-12T20:38:11.778Z,2.17
2023-04-12T20:40:39.826Z,2.30
2023-04-12T20:43:06.306Z,2.93
2023-04-12T20:45:34.599Z,2.47
2023-04-12T20:48:01.195Z,2.23
2023-04-12T20:50:30.340Z,2.57
2023-04-12T20:52:57.793Z,2.40
2023-04-12T20:55:31.185Z,2.87
2023-04-12T20:57:57.675Z,3.00
2023-04-12T21:00:24.766Z,2.70
2023-04-12T21:02:51.395Z,2.40
2023-04-12T21:05:17.925Z,2.53
2023-04-12T21:07:46.972Z,2.03
2023-04-12T21:10:14.599Z,2.40
2023-04-12T21:12:41.650Z,2.27
2023-04-12T21:15:09.222Z,2.50
2023-04-12T21:17:36.547Z,1.90
2023-04-12T21:20:13.099Z,2.03
2023-04-12T21:22:41.638Z,2.50
2023-04-12T21:25:09.787Z,1.90
2023-04-12T21:27:36.354Z,1.93
2023-04-12T21:30:03.382Z,2.30
2023-04-12T21:32:30.065Z,2.47
2023-04-12T21:34:58.346Z,1.97
2023-04-12T21:37:25.791Z,2.13
2023-04-12T21:39:53.086Z,3.00
2023-04-12T21:42:19.793Z,2.87
2023-04-12T21:44:46.185Z,2.50
2023-04-12T21:47:12.886Z,2.43
2023-04-12T21:49:39.404Z,2.13
2023-04-12T21:52:06.948Z,1.93
2023-04-12T21:54:36.758Z,2.63
2023-04-12T21:57:03.603Z,2.33
2023-04-12T21:59:30.004Z,2.50
2023-04-12T22:01:56.887Z,2.70
2023-04-12T22:04:23.511Z,2.40
2023-04-12T22:06:51.525Z,3.77
2023-04-12T22:09:18.643Z,3.03
2023-04-12T22:11:46.536Z,2.80
2023-04-12T22:14:12.955Z,2.67
2023-04-12T22:16:39.481Z,3.27
2023-04-12T22:19:05.886Z,3.37
2023-04-12T22:21:33.537Z,3.10
2023-04-12T22:24:00.401Z,3.50
2023-04-12T22:26:27.188Z,3.43
2023-04-12T22:28:54.149Z,2.87
2023-04-12T22:31:22.824Z,3.00
2023-04-12T22:33:49.389Z,3.10
2023-04-12T22:36:16.275Z,3.20
2023-04-12T22:38:42.764Z,2.87
2023-04-12T22:41:09.390Z,3.23
2023-04-12T22:43:47.835Z,2.80
2023-04-12T22:46:18.644Z,3.30
2023-04-12T22:48:48.383Z,2.60
2023-04-12T22:51:15.372Z,2.93
2023-04-12T22:53:43.255Z,2.80
2023-04-12T22:56:09.931Z,3.00
2023-04-12T22:58:37.367Z,3.60
2023-04-12T23:01:06.976Z,5.33
2023-04-12T23:03:33.505Z,6.20
2023-04-12T23:06:00.130Z,6.13
2023-04-12T23:08:26.629Z,5.50
2023-04-12T23:10:53.388Z,4.73
2023-04-12T23:13:20.162Z,5.03
2023-04-12T23:15:46.877Z,4.40
2023-04-12T23:18:13.347Z,4.37
2023-04-12T23:20:40.448Z,5.23
2023-04-12T23:23:07.059Z,4.10
2023-04-12T23:25:41.182Z,3.83
2023-04-12T23:28:15.169Z,3.43
2023-04-12T23:30:48.759Z,3.77
2023-04-12T23:33:18.094Z,3.90
2023-04-12T23:36:02.792Z,3.90
2023-04-12T23:38:33.624Z,5.13
2023-04-12T23:41:02.241Z,4.73
2023-04-12T23:43:29.360Z,3.90
2023-04-12T23:45:57.142Z,3.83
2023-04-12T23:48:24.161Z,3.60
2023-04-12T23:50:51.380Z,3.90
2023-04-12T23:53:18.853Z,3.33
2023-04-12T23:55:51.123Z,3.47
2023-04-12T23:58:18.328Z,3.73
